Time;durP1;ratioP1;P1;durP2;ratioP2;P2;SDS_P1;SDS_P2;PMS_P1;PMS_P2;Temp;Humidity;BMP_temperature;BMP_pressure;BME280_temperature;BME280_humidity;BME280_pressure;Samples;Min_cycle;Max_cycle;Signal;HPM_P1;HPM_P2
2023/01/07 00:00:04;;;;;;;;;;;21.30;99.90;;;;;;5067080;28;19920;-70
2023/01/07 00:02:31;;;;;;;;;;;21.30;99.90;;;;;;5069230;28;19986;-68
2023/01/07 00:04:57;;;;;;;;;;;21.30;99.90;;;;;;5065881;28;19920;-69
2023/01/07 00:07:24;;;;;;;;;;;21.30;99.90;;;;;;5064398;28;20274;-70
2023/01/07 00:09:51;;;;;;;;;;;21.20;99.90;;;;;;5065619;28;19928;-69
2023/01/07 00:12:18;;;;;;;;;;;21.20;99.90;;;;;;5070205;28;19919;-70
2023/01/07 00:14:44;;;;;;;;;;;21.30;99.90;;;;;;5069064;28;19992;-70
2023/01/07 00:17:11;;;;;;;;;;;21.30;99.90;;;;;;5074445;28;19920;-71
2023/01/07 00:19:37;;;;;;;;;;;21.40;99.90;;;;;;5070992;28;19983;-71
2023/01/07 00:22:04;;;;;;;;;;;21.50;99.90;;;;;;5072872;28;20437;-71
2023/01/07 00:24:31;;;;;;;;;;;21.70;99.90;;;;;;5068848;28;19923;-70
2023/01/07 00:26:57;;;;;;;;;;;22.00;99.90;;;;;;5073589;28;19912;-71
2023/01/07 00:29:24;;;;;;;;;;;22.10;99.90;;;;;;5069303;28;19943;-71
2023/01/07 00:31:52;;;;;;;;;;;22.20;99.90;;;;;;5072366;28;19920;-72
2023/01/07 00:34:22;;;;;;;;;;;22.30;99.90;;;;;;5059603;28;19912;-71
2023/01/07 00:36:48;;;;;;;;;;;22.40;99.90;;;;;;5068484;28;19971;-70
2023/01/07 00:39:16;;;;;;;;;;;22.60;99.90;;;;;;5072287;28;19920;-71
2023/01/07 00:44:29;;;;;;;;;;;23.00;99.90;;;;;;5060161;28;19977;-70
2023/01/07 00:46:55;;;;;;;;;;;23.40;99.90;;;;;;5066748;28;20320;-71
2023/01/07 00:49:23;;;;;;;;;;;23.50;99.90;;;;;;5068618;28;19932;-72
2023/01/07 00:51:50;;;;;;;;;;;23.60;99.90;;;;;;5069850;28;19912;-72
2023/01/07 00:54:17;;;;;;;;;;;23.80;99.90;;;;;;5077560;28;19942;-71
2023/01/07 00:56:44;;;;;;;;;;;23.90;99.90;;;;;;5066978;28;19917;-70
2023/01/07 00:59:10;;;;;;;;;;;23.90;99.90;;;;;;5069912;28;19913;-71
2023/01/07 01:01:37;;;;;;;;;;;23.80;99.90;;;;;;5070501;28;19920;-70
2023/01/07 01:04:05;;;;;;;;;;;23.50;99.90;;;;;;5066947;28;20755;-72
2023/01/07 01:06:32;;;;;;;;;;;23.40;99.90;;;;;;5069265;28;19916;-71
2023/01/07 01:08:59;;;;;;;;;;;23.10;99.90;;;;;;5066825;28;19912;-73
2023/01/07 01:11:25;;;;;;;;;;;23.00;99.90;;;;;;5073201;28;20359;-71
2023/01/07 01:13:52;;;;;;;;;;;23.10;99.90;;;;;;5068767;28;19950;-71
2023/01/07 01:16:18;;;;;;;;;;;23.30;99.90;;;;;;5069047;28;19952;-71
2023/01/07 01:18:45;;;;;;;;;;;23.70;99.90;;;;;;5061681;28;19916;-72
2023/01/07 01:21:13;;;;;;;;;;;23.90;99.90;;;;;;5062809;28;20003;-70
2023/01/07 01:23:41;;;;;;;;;;;24.20;99.90;;;;;;5064476;28;19935;-70
2023/01/07 01:26:10;;;;;;;;;;;24.40;99.90;;;;;;5069453;28;19912;-70
2023/01/07 01:28:37;;;;;;;;;;;24.50;99.90;;;;;;5069392;28;20279;-71
2023/01/07 01:31:04;;;;;;;;;;;24.70;99.90;;;;;;5070776;28;19912;-70
2023/01/07 01:33:30;;;;;;;;;;;24.70;98.70;;;;;;5069108;28;19935;-71
2023/01/07 01:35:57;;;;;;;;;;;24.70;98.40;;;;;;5068611;28;20358;-71
2023/01/07 01:38:24;;;;;;;;;;;24.70;98.60;;;;;;5068633;28;20377;-70
2023/01/07 01:40:50;;;;;;;;;;;24.60;98.60;;;;;;5070565;28;20317;-71
2023/01/07 01:43:28;;;;;;;;;;;24.80;98.30;;;;;;5066414;28;20375;-71
2023/01/07 01:45:55;;;;;;;;;;;25.00;98.40;;;;;;5068192;28;19916;-69
2023/01/07 01:48:22;;;;;;;;;;;24.90;97.90;;;;;;5070902;28;20271;-71
2023/01/07 01:50:50;;;;;;;;;;;24.80;98.00;;;;;;5075383;28;20622;-71
2023/01/07 01:53:23;;;;;;;;;;;24.50;98.10;;;;;;5067268;28;19912;-71
2023/01/07 01:56:04;;;;;;;;;;;24.20;98.10;;;;;;5067856;28;20007;-72
2023/01/07 01:58:34;;;;;;;;;;;23.80;98.90;;;;;;5065147;28;19999;-71
2023/01/07 02:01:00;;;;;;;;;;;23.40;99.40;;;;;;5062227;28;20367;-70
2023/01/07 02:03:29;;;;;;;;;;;23.10;99.60;;;;;;5063763;28;19982;-70
2023/01/07 02:05:56;;;;;;;;;;;23.00;99.90;;;;;;5063503;28;19958;-71
2023/01/07 02:08:23;;;;;;;;;;;23.00;99.90;;;;;;5067618;28;19920;-71
2023/01/07 02:11:00;;;;;;;;;;;23.10;99.90;;;;;;5055283;28;19912;-70
2023/01/07 02:13:51;;;;;;;;;;;23.30;99.90;;;;;;5070172;28;19912;-72
2023/01/07 02:16:20;;;;;;;;;;;23.60;99.30;;;;;;5069125;28;19909;-71
2023/01/07 02:18:46;;;;;;;;;;;23.90;98.70;;;;;;5067224;28;19920;-70
2023/01/07 02:21:31;;;;;;;;;;;24.10;99.00;;;;;;5065866;28;19919;-71
2023/01/07 02:23:57;;;;;;;;;;;24.10;98.40;;;;;;5067920;28;19921;-70
2023/01/07 02:26:33;;;;;;;;;;;24.10;98.80;;;;;;5069349;28;19974;-71
2023/01/07 02:29:06;;;;;;;;;;;24.10;98.70;;;;;;5068579;28;20003;-70
2023/01/07 02:31:58;;;;;;;;;;;24.10;98.60;;;;;;5070098;28;19912;-69
2023/01/07 02:34:31;;;;;;;;;;;24.10;98.40;;;;;;5070296;28;19912;-71
2023/01/07 02:37:05;;;;;;;;;;;24.00;98.30;;;;;;5067450;28;19916;-69
2023/01/07 02:39:47;;;;;;;;;;;23.90;98.40;;;;;;5064095;28;19929;-70
2023/01/07 02:42:13;;;;;;;;;;;23.90;98.40;;;;;;5056420;28;19921;-69
2023/01/07 02:44:43;;;;;;;;;;;24.00;98.40;;;;;;5060462;28;19966;-71
2023/01/07 02:47:12;;;;;;;;;;;24.10;98.10;;;;;;5059735;28;20552;-70
2023/01/07 02:49:39;;;;;;;;;;;24.30;98.00;;;;;;5058791;28;19982;-70
2023/01/07 02:52:17;;;;;;;;;;;24.50;97.80;;;;;;5060008;28;19917;-70
2023/01/07 02:54:45;;;;;;;;;;;24.40;97.50;;;;;;5062048;28;19913;-72
2023/01/07 02:57:21;;;;;;;;;;;24.30;97.60;;;;;;5061614;28;20322;-70
2023/01/07 02:59:57;;;;;;;;;;;24.30;97.70;;;;;;5068994;28;20003;-70
2023/01/07 03:02:33;;;;;;;;;;;24.10;97.80;;;;;;5068509;28;19927;-70
2023/01/07 03:05:17;;;;;;;;;;;24.00;97.80;;;;;;5053576;28;19912;-69
2023/01/07 03:08:13;;;;;;;;;;;24.00;97.80;;;;;;5062167;28;20286;-70
2023/01/07 03:10:55;;;;;;;;;;;24.10;97.80;;;;;;5049632;28;19912;-71
2023/01/07 03:13:29;;;;;;;;;;;24.10;97.90;;;;;;5067200;28;19961;-71
2023/01/07 03:16:02;;;;;;;;;;;24.20;97.80;;;;;;5057461;28;19966;-70
2023/01/07 03:18:30;;;;;;;;;;;24.30;97.60;;;;;;5060653;28;19916;-70
2023/01/07 03:21:00;;;;;;;;;;;24.20;97.60;;;;;;5068158;28;20338;-70
2023/01/07 03:23:28;;;;;;;;;;;24.10;97.20;;;;;;5069523;28;19979;-70
2023/01/07 03:25:57;;;;;;;;;;;23.90;97.00;;;;;;5065458;28;19912;-71
2023/01/07 03:28:28;;;;;;;;;;;23.70;97.30;;;;;;5067867;28;19912;-70
2023/01/07 03:30:56;;;;;;;;;;;23.70;97.60;;;;;;5066863;28;20616;-69
2023/01/07 03:33:22;;;;;;;;;;;23.80;97.70;;;;;;5063384;28;19921;-68
2023/01/07 03:35:50;;;;;;;;;;;24.00;97.40;;;;;;5052864;28;19913;-71
2023/01/07 03:38:18;;;;;;;;;;;24.30;96.90;;;;;;5068210;28;20275;-70
2023/01/07 03:40:45;;;;;;;;;;;24.60;96.40;;;;;;5066788;28;20395;-70
2023/01/07 03:43:12;;;;;;;;;;;24.90;96.20;;;;;;5067306;28;19924;-72
2023/01/07 03:45:39;;;;;;;;;;;25.40;96.10;;;;;;5065343;28;19919;-71
2023/01/07 03:48:06;;;;;;;;;;;25.70;95.40;;;;;;5065397;28;20374;-69
2023/01/07 03:50:33;;;;;;;;;;;25.90;94.50;;;;;;5065728;28;19974;-70
2023/01/07 03:53:00;;;;;;;;;;;26.00;94.50;;;;;;5065731;28;20271;-70
2023/01/07 03:55:26;;;;;;;;;;;26.20;94.80;;;;;;5064863;28;19916;-70
2023/01/07 03:57:53;;;;;;;;;;;26.30;94.30;;;;;;5065004;28;20432;-71
2023/01/07 04:00:20;;;;;;;;;;;26.50;93.60;;;;;;5067284;28;19944;-71
2023/01/07 04:02:46;;;;;;;;;;;26.60;93.40;;;;;;5066841;28;19917;-71
2023/01/07 04:05:13;;;;;;;;;;;26.60;93.40;;;;;;5065907;28;19952;-69
2023/01/07 04:07:40;;;;;;;;;;;26.50;93.40;;;;;;5065758;28;19921;-69
2023/01/07 04:10:07;;;;;;;;;;;26.60;93.20;;;;;;5065294;28;19916;-70
2023/01/07 04:12:34;;;;;;;;;;;26.70;93.30;;;;;;5074276;28;19916;-70
2023/01/07 04:15:01;;;;;;;;;;;26.80;93.20;;;;;;5058591;28;19909;-71
2023/01/07 04:17:28;;;;;;;;;;;26.70;93.00;;;;;;5073100;28;19912;-70
2023/01/07 04:19:54;;;;;;;;;;;26.60;93.00;;;;;;5072815;28;20038;-71
2023/01/07 04:22:21;;;;;;;;;;;26.60;92.70;;;;;;5068131;28;19923;-70
2023/01/07 04:24:48;;;;;;;;;;;26.60;92.90;;;;;;5074873;28;19999;-70
2023/01/07 04:27:15;;;;;;;;;;;26.60;92.80;;;;;;5076428;28;19916;-71
2023/01/07 04:29:41;;;;;;;;;;;26.60;92.90;;;;;;5073653;28;19946;-70
2023/01/07 04:32:08;;;;;;;;;;;26.70;92.90;;;;;;5074425;28;19916;-70
2023/01/07 04:34:34;;;;;;;;;;;26.60;92.70;;;;;;5075866;28;20006;-70
2023/01/07 04:37:01;;;;;;;;;;;26.60;92.90;;;;;;5077150;28;19917;-70
2023/01/07 04:39:28;;;;;;;;;;;26.50;92.60;;;;;;5068393;28;20026;-70
2023/01/07 04:41:54;;;;;;;;;;;26.50;92.70;;;;;;5076847;28;20057;-69
2023/01/07 04:44:21;;;;;;;;;;;26.30;92.50;;;;;;5077671;28;20374;-69
2023/01/07 04:46:48;;;;;;;;;;;26.30;92.50;;;;;;5075888;28;20058;-70
2023/01/07 04:49:14;;;;;;;;;;;26.30;92.50;;;;;;5080565;28;20255;-71
2023/01/07 04:51:41;;;;;;;;;;;26.20;92.60;;;;;;5085845;28;19912;-70
2023/01/07 04:54:08;;;;;;;;;;;26.10;93.00;;;;;;5073365;28;19964;-72
2023/01/07 04:56:35;;;;;;;;;;;26.10;93.00;;;;;;5071555;28;20368;-71
2023/01/07 04:59:02;;;;;;;;;;;26.10;93.20;;;;;;5069860;28;19982;-71
2023/01/07 05:01:29;;;;;;;;;;;25.90;92.90;;;;;;5071461;28;19919;-71
2023/01/07 05:03:56;;;;;;;;;;;25.70;93.40;;;;;;5071871;28;19924;-71
2023/01/07 05:06:23;;;;;;;;;;;25.60;93.80;;;;;;5073603;28;19916;-71
2023/01/07 05:08:49;;;;;;;;;;;25.30;94.50;;;;;;5060484;28;19935;-71
2023/01/07 05:11:20;;;;;;;;;;;25.10;95.30;;;;;;5061895;28;19912;-71
2023/01/07 05:13:49;;;;;;;;;;;24.80;95.70;;;;;;5062234;28;20385;-70
2023/01/07 05:16:16;;;;;;;;;;;24.50;96.20;;;;;;5056729;28;20358;-71
2023/01/07 05:18:43;;;;;;;;;;;24.20;96.70;;;;;;5068700;28;19969;-70
2023/01/07 05:21:11;;;;;;;;;;;24.10;97.10;;;;;;5071142;28;20278;-70
2023/01/07 05:23:37;;;;;;;;;;;23.90;97.60;;;;;;5068937;28;19985;-69
2023/01/07 05:26:04;;;;;;;;;;;23.80;97.80;;;;;;5069954;28;19917;-69
2023/01/07 05:28:31;;;;;;;;;;;23.60;97.80;;;;;;5066935;28;19990;-69
2023/01/07 05:30:57;;;;;;;;;;;23.50;98.10;;;;;;5061034;28;19991;-70
2023/01/07 05:33:24;;;;;;;;;;;23.40;98.00;;;;;;5073696;28;20003;-72
2023/01/07 05:35:51;;;;;;;;;;;23.30;98.20;;;;;;5082826;28;19939;-71
2023/01/07 05:38:17;;;;;;;;;;;23.30;98.40;;;;;;5068574;28;19983;-70
2023/01/07 05:40:47;;;;;;;;;;;23.30;98.00;;;;;;5069139;28;20031;-70
2023/01/07 05:43:14;;;;;;;;;;;23.20;98.20;;;;;;5067017;28;20314;-71
2023/01/07 05:45:43;;;;;;;;;;;23.30;98.10;;;;;;5083277;28;19916;-71
2023/01/07 05:48:09;;;;;;;;;;;23.30;98.10;;;;;;5060506;28;19921;-72
2023/01/07 05:50:36;;;;;;;;;;;23.30;98.10;;;;;;5070072;28;19956;-71
2023/01/07 05:53:03;;;;;;;;;;;23.30;98.30;;;;;;5068367;28;19916;-71
2023/01/07 05:55:29;;;;;;;;;;;23.40;98.10;;;;;;5063805;28;19920;-72
2023/01/07 05:57:56;;;;;;;;;;;23.40;97.80;;;;;;5067133;28;19958;-71
2023/01/07 06:00:23;;;;;;;;;;;23.30;98.20;;;;;;5071430;28;20546;-70
2023/01/07 06:02:49;;;;;;;;;;;23.30;98.00;;;;;;5067887;28;19942;-72
2023/01/07 06:05:16;;;;;;;;;;;23.20;98.20;;;;;;5055140;28;19943;-71
2023/01/07 06:07:43;;;;;;;;;;;23.20;98.40;;;;;;5067331;28;20002;-72
2023/01/07 06:10:10;;;;;;;;;;;23.10;98.40;;;;;;5061296;28;20371;-71
2023/01/07 06:12:37;;;;;;;;;;;23.10;98.30;;;;;;5064706;28;19916;-72
2023/01/07 06:15:05;;;;;;;;;;;23.00;98.30;;;;;;5073037;28;19909;-72
2023/01/07 06:17:33;;;;;;;;;;;23.00;98.60;;;;;;5062549;28;19923;-72
2023/01/07 06:19:59;;;;;;;;;;;22.90;98.60;;;;;;5071749;28;19919;-70
2023/01/07 06:22:27;;;;;;;;;;;22.90;98.70;;;;;;5067050;28;19912;-71
2023/01/07 06:24:53;;;;;;;;;;;22.80;99.00;;;;;;5069264;28;20291;-71
2023/01/07 06:27:20;;;;;;;;;;;22.80;99.20;;;;;;5067473;28;19920;-69
2023/01/07 06:29:47;;;;;;;;;;;22.80;99.20;;;;;;5053266;28;19950;-71
2023/01/07 06:32:13;;;;;;;;;;;22.70;99.20;;;;;;5064024;28;20003;-71
2023/01/07 06:34:40;;;;;;;;;;;22.70;99.40;;;;;;5069724;28;20003;-70
2023/01/07 06:37:07;;;;;;;;;;;22.70;99.70;;;;;;5067330;28;20003;-71
2023/01/07 06:39:34;;;;;;;;;;;22.70;99.80;;;;;;5068886;28;20429;-70
2023/01/07 06:42:00;;;;;;;;;;;22.70;99.90;;;;;;5067055;28;19920;-70
2023/01/07 06:44:27;;;;;;;;;;;22.60;99.80;;;;;;5066508;28;20386;-70
2023/01/07 06:46:54;;;;;;;;;;;22.60;99.70;;;;;;5064198;28;19917;-70
2023/01/07 06:49:20;;;;;;;;;;;22.50;99.70;;;;;;5060104;28;19917;-68
2023/01/07 06:51:47;;;;;;;;;;;22.50;99.70;;;;;;5057543;28;19912;-71
2023/01/07 06:54:14;;;;;;;;;;;22.50;99.80;;;;;;5066839;28;19916;-71
2023/01/07 06:56:40;;;;;;;;;;;22.50;99.80;;;;;;5066767;28;19928;-70
2023/01/07 06:59:07;;;;;;;;;;;22.60;99.90;;;;;;5064760;28;20019;-69
2023/01/07 07:01:34;;;;;;;;;;;22.60;99.50;;;;;;5071073;28;20033;-71
2023/01/07 07:04:00;;;;;;;;;;;22.60;99.50;;;;;;5066146;28;19921;-71
2023/01/07 07:06:27;;;;;;;;;;;22.50;99.60;;;;;;5071200;28;19913;-71
2023/01/07 07:08:53;;;;;;;;;;;22.40;99.60;;;;;;5067904;28;20444;-71
2023/01/07 07:11:20;;;;;;;;;;;22.30;99.60;;;;;;5063183;28;19999;-70
2023/01/07 07:13:47;;;;;;;;;;;22.40;99.70;;;;;;5060715;28;20366;-71
2023/01/07 07:16:13;;;;;;;;;;;22.30;99.60;;;;;;5070133;28;20398;-71
2023/01/07 07:18:41;;;;;;;;;;;22.20;99.60;;;;;;5066749;28;19922;-71
2023/01/07 07:21:08;;;;;;;;;;;22.10;99.80;;;;;;5068451;28;19947;-73
2023/01/07 07:23:35;;;;;;;;;;;22.00;99.90;;;;;;5060352;28;20279;-71
2023/01/07 07:26:01;;;;;;;;;;;22.00;99.90;;;;;;5057201;28;19912;-71
2023/01/07 07:28:28;;;;;;;;;;;22.00;99.90;;;;;;5062022;28;20262;-70
2023/01/07 07:30:55;;;;;;;;;;;21.90;99.90;;;;;;5055822;28;19924;-70
2023/01/07 07:33:22;;;;;;;;;;;21.90;99.90;;;;;;5059456;28;19912;-69
2023/01/07 07:35:48;;;;;;;;;;;21.90;99.90;;;;;;5067963;28;19943;-70
2023/01/07 07:38:16;;;;;;;;;;;21.80;99.90;;;;;;5063397;28;19920;-70
2023/01/07 07:40:43;;;;;;;;;;;21.80;99.90;;;;;;5068373;28;20376;-69
2023/01/07 07:43:10;;;;;;;;;;;21.80;99.90;;;;;;5068176;28;20283;-69
2023/01/07 07:45:36;;;;;;;;;;;21.70;99.90;;;;;;5068523;28;20011;-70
2023/01/07 07:48:06;;;;;;;;;;;21.60;99.90;;;;;;5066189;28;19954;-70
2023/01/07 07:50:32;;;;;;;;;;;21.60;99.90;;;;;;5064884;28;19916;-70
2023/01/07 07:52:59;;;;;;;;;;;21.60;99.90;;;;;;5068203;28;19917;-69
2023/01/07 07:55:26;;;;;;;;;;;21.50;99.90;;;;;;5080097;28;20341;-71
2023/01/07 07:57:53;;;;;;;;;;;21.50;99.90;;;;;;5062268;28;19927;-69
2023/01/07 08:00:20;;;;;;;;;;;21.40;99.90;;;;;;5070924;28;20365;-71
2023/01/07 08:02:46;;;;;;;;;;;21.30;99.90;;;;;;5067055;28;19956;-70
2023/01/07 08:05:14;;;;;;;;;;;21.30;99.90;;;;;;5070431;28;19938;-69
2023/01/07 08:07:41;;;;;;;;;;;21.30;99.90;;;;;;5067558;28;19909;-69
2023/01/07 08:10:08;;;;;;;;;;;21.20;99.90;;;;;;5064721;28;19920;-69
2023/01/07 08:12:38;;;;;;;;;;;21.10;99.90;;;;;;5067415;28;19909;-70
2023/01/07 08:15:05;;;;;;;;;;;21.10;99.90;;;;;;5054396;28;20436;-69
2023/01/07 08:17:32;;;;;;;;;;;21.20;99.90;;;;;;5069216;28;19942;-72
2023/01/07 08:19:59;;;;;;;;;;;21.10;99.90;;;;;;5062066;28;19917;-69
2023/01/07 08:22:25;;;;;;;;;;;21.00;99.90;;;;;;5061658;28;19909;-68
2023/01/07 08:24:52;;;;;;;;;;;20.90;99.90;;;;;;5066113;28;19960;-70
2023/01/07 08:27:19;;;;;;;;;;;20.90;99.90;;;;;;5063575;28;19936;-68
2023/01/07 08:29:45;;;;;;;;;;;20.90;99.90;;;;;;5064033;28;19913;-69
2023/01/07 08:32:12;;;;;;;;;;;20.80;99.90;;;;;;5066476;28;19964;-69
2023/01/07 08:34:39;;;;;;;;;;;20.70;99.90;;;;;;5065032;28;19915;-69
2023/01/07 08:37:05;;;;;;;;;;;20.70;99.90;;;;;;5066522;28;20359;-68
2023/01/07 08:39:32;;;;;;;;;;;20.70;99.90;;;;;;5066955;28;19928;-69
2023/01/07 08:41:59;;;;;;;;;;;20.70;99.90;;;;;;5071229;28;20279;-70
2023/01/07 08:44:25;;;;;;;;;;;20.60;99.90;;;;;;5070370;28;20325;-69
2023/01/07 08:46:53;;;;;;;;;;;20.60;99.90;;;;;;5073581;28;19916;-69
2023/01/07 08:49:19;;;;;;;;;;;20.60;99.90;;;;;;5072787;28;20301;-70
2023/01/07 08:51:46;;;;;;;;;;;20.60;99.90;;;;;;5069812;28;19916;-69
2023/01/07 08:54:13;;;;;;;;;;;20.60;99.90;;;;;;5072179;28;19916;-69
2023/01/07 08:56:39;;;;;;;;;;;20.60;99.90;;;;;;5067184;28;20323;-69
2023/01/07 08:59:06;;;;;;;;;;;20.50;99.90;;;;;;5067750;28;19916;-70
2023/01/07 09:01:33;;;;;;;;;;;20.50;99.90;;;;;;5070013;28;19924;-69
2023/01/07 09:03:59;;;;;;;;;;;20.50;99.90;;;;;;5068227;28;20351;-69
2023/01/07 09:06:26;;;;;;;;;;;20.50;99.90;;;;;;5061559;28;19946;-69
2023/01/07 09:08:53;;;;;;;;;;;20.40;99.90;;;;;;5061831;28;19917;-69
2023/01/07 09:11:19;;;;;;;;;;;20.30;99.90;;;;;;5056761;28;19912;-69
2023/01/07 09:13:46;;;;;;;;;;;20.30;99.90;;;;;;5065494;28;19916;-69
2023/01/07 09:16:13;;;;;;;;;;;20.30;99.90;;;;;;5072551;28;19942;-69
2023/01/07 09:18:39;;;;;;;;;;;20.20;99.90;;;;;;5059856;28;19920;-68
2023/01/07 09:21:06;;;;;;;;;;;20.20;99.90;;;;;;5054869;28;20009;-69
2023/01/07 09:23:33;;;;;;;;;;;20.20;99.90;;;;;;5066127;28;19924;-68
2023/01/07 09:26:00;;;;;;;;;;;20.20;99.90;;;;;;5068772;28;20363;-68
2023/01/07 09:28:26;;;;;;;;;;;20.10;99.90;;;;;;5065265;28;19917;-68
2023/01/07 09:30:53;;;;;;;;;;;20.10;99.90;;;;;;5063128;28;19917;-68
2023/01/07 09:33:20;;;;;;;;;;;20.10;99.90;;;;;;5056928;28;19917;-69
2023/01/07 09:35:46;;;;;;;;;;;20.10;99.90;;;;;;5065156;28;19913;-70
2023/01/07 09:38:13;;;;;;;;;;;20.20;99.90;;;;;;5065287;28;20208;-69
2023/01/07 09:40:41;;;;;;;;;;;20.10;99.90;;;;;;5102499;28;20317;-69
2023/01/07 09:43:15;;;;;;;;;;;20.10;99.90;;;;;;5069089;28;19920;-69
2023/01/07 09:46:08;;;;;;;;;;;20.10;99.90;;;;;;5070408;28;19915;-70
2023/01/07 09:48:39;;;;;;;;;;;20.10;99.90;;;;;;5066908;28;19945;-68
2023/01/07 09:51:26;;;;;;;;;;;20.10;99.90;;;;;;5070410;28;19948;-75
2023/01/07 09:53:54;;;;;;;;;;;20.10;99.90;;;;;;5070452;28;20358;-75
2023/01/07 09:56:21;;;;;;;;;;;20.00;99.90;;;;;;5066051;28;20027;-71
2023/01/07 09:58:48;;;;;;;;;;;19.90;99.90;;;;;;5069505;28;20385;-72
2023/01/07 10:01:19;;;;;;;;;;;19.90;99.90;;;;;;5072139;28;19916;-78
2023/01/07 10:03:50;;;;;;;;;;;19.80;99.90;;;;;;5066895;28;20595;-78
2023/01/07 10:06:20;;;;;;;;;;;19.80;99.90;;;;;;5069068;28;19912;-74
2023/01/07 10:08:53;;;;;;;;;;;19.70;99.90;;;;;;5067288;28;19912;-77
2023/01/07 10:11:40;;;;;;;;;;;19.70;99.90;;;;;;5070760;28;19924;-78
2023/01/07 10:14:24;;;;;;;;;;;19.70;99.90;;;;;;5069268;28;19958;-79
2023/01/07 10:17:01;;;;;;;;;;;19.70;99.90;;;;;;5069850;28;19962;-76
2023/01/07 10:19:36;;;;;;;;;;;19.60;99.90;;;;;;5064294;28;19938;-75
2023/01/07 10:22:07;;;;;;;;;;;19.60;99.90;;;;;;5070973;28;19916;-76
2023/01/07 10:24:37;;;;;;;;;;;19.60;99.90;;;;;;5069530;28;19952;-79
2023/01/07 10:27:08;;;;;;;;;;;19.50;99.90;;;;;;5069060;28;20004;-75
2023/01/07 10:29:38;;;;;;;;;;;19.60;99.90;;;;;;5069635;28;19916;-74
2023/01/07 10:32:15;;;;;;;;;;;19.50;99.90;;;;;;5070849;28;19920;-77
2023/01/07 10:34:46;;;;;;;;;;;19.60;99.90;;;;;;5068752;28;20015;-73
2023/01/07 10:37:13;;;;;;;;;;;19.50;99.90;;;;;;5066656;28;19954;-73
2023/01/07 10:39:58;;;;;;;;;;;19.50;99.90;;;;;;5059154;28;19947;-74
2023/01/07 10:42:41;;;;;;;;;;;19.50;99.90;;;;;;5069194;28;19919;-72
2023/01/07 10:45:20;;;;;;;;;;;19.50;99.90;;;;;;5055557;28;19923;-73
2023/01/07 10:47:46;;;;;;;;;;;19.50;99.90;;;;;;5066154;28;19920;-71
2023/01/07 10:50:29;;;;;;;;;;;19.50;99.90;;;;;;5066108;28;20520;-74
2023/01/07 10:53:22;;;;;;;;;;;19.50;99.90;;;;;;5068714;28;19963;-75
2023/01/07 10:56:20;;;;;;;;;;;19.40;99.90;;;;;;5076014;28;19912;-74
2023/01/07 10:58:48;;;;;;;;;;;19.50;99.90;;;;;;5056883;28;19995;-74
2023/01/07 11:01:26;;;;;;;;;;;19.40;99.90;;;;;;5070830;28;19959;-75
2023/01/07 11:03:54;;;;;;;;;;;19.40;99.90;;;;;;5059782;28;19933;-71
2023/01/07 11:06:44;;;;;;;;;;;19.40;99.90;;;;;;5090093;28;19921;-73
2023/01/07 11:09:14;;;;;;;;;;;19.50;99.90;;;;;;5065752;28;19966;-74
2023/01/07 11:11:41;;;;;;;;;;;19.40;99.90;;;;;;5064901;28;19912;-74
2023/01/07 11:14:18;;;;;;;;;;;19.50;99.90;;;;;;5067413;28;19966;-72
2023/01/07 11:16:48;;;;;;;;;;;19.50;99.90;;;;;;5060925;28;19919;-74
2023/01/07 11:19:15;;;;;;;;;;;19.40;99.90;;;;;;5067297;28;20387;-74
2023/01/07 11:21:46;;;;;;;;;;;19.40;99.90;;;;;;5069311;28;19913;-74
2023/01/07 11:24:18;;;;;;;;;;;19.40;99.90;;;;;;5069386;28;20278;-74
2023/01/07 11:26:45;;;;;;;;;;;19.40;99.90;;;;;;5061807;28;19924;-77
2023/01/07 11:29:21;;;;;;;;;;;19.40;99.90;;;;;;5062533;28;19916;-76
2023/01/07 11:31:47;;;;;;;;;;;19.40;99.90;;;;;;5070026;28;19958;-76
2023/01/07 11:34:28;;;;;;;;;;;19.30;99.90;;;;;;5069727;28;19966;-82
2023/01/07 11:36:54;;;;;;;;;;;19.30;99.90;;;;;;5065416;28;20374;-75
2023/01/07 11:39:23;;;;;;;;;;;19.20;99.90;;;;;;5062180;28;19951;-75
2023/01/07 11:41:59;;;;;;;;;;;19.30;99.90;;;;;;5059230;28;19963;-72
2023/01/07 11:44:26;;;;;;;;;;;19.20;99.90;;;;;;5064773;28;20361;-74
2023/01/07 11:46:53;;;;;;;;;;;19.30;99.90;;;;;;5067979;28;19921;-74
2023/01/07 11:49:22;;;;;;;;;;;19.20;99.90;;;;;;5066679;28;19917;-72
2023/01/07 11:51:48;;;;;;;;;;;19.20;99.90;;;;;;5070168;28;19920;-71
2023/01/07 11:54:20;;;;;;;;;;;19.20;99.90;;;;;;5072656;28;19912;-74
2023/01/07 11:56:47;;;;;;;;;;;19.20;99.90;;;;;;5065785;28;20386;-75
2023/01/07 11:59:13;;;;;;;;;;;19.20;99.90;;;;;;5066598;28;19923;-70
2023/01/07 12:01:43;;;;;;;;;;;19.20;99.90;;;;;;5068761;28;19912;-72
2023/01/07 12:04:19;;;;;;;;;;;19.10;99.90;;;;;;5069808;28;19924;-73
2023/01/07 12:06:50;;;;;;;;;;;19.20;99.90;;;;;;5071644;28;20012;-73
2023/01/07 12:09:34;;;;;;;;;;;19.10;99.90;;;;;;5071867;28;19916;-70
2023/01/07 12:12:30;;;;;;;;;;;19.10;99.90;;;;;;5069023;28;19913;-74
2023/01/07 12:15:19;;;;;;;;;;;19.10;99.90;;;;;;5070465;28;19916;-72
2023/01/07 12:17:53;;;;;;;;;;;19.10;99.90;;;;;;5055676;28;20343;-71
2023/01/07 12:20:23;;;;;;;;;;;19.10;99.90;;;;;;5074264;28;19916;-70
2023/01/07 12:23:00;;;;;;;;;;;19.10;99.90;;;;;;5071797;28;19959;-71
2023/01/07 12:25:26;;;;;;;;;;;19.10;99.90;;;;;;5072494;28;19995;-74
2023/01/07 12:28:02;;;;;;;;;;;19.10;99.90;;;;;;5069110;28;20382;-78
2023/01/07 12:30:48;;;;;;;;;;;19.00;99.90;;;;;;5070890;28;19913;-75
2023/01/07 12:33:24;;;;;;;;;;;19.10;99.90;;;;;;5072112;28;20624;-79
2023/01/07 12:35:51;;;;;;;;;;;19.00;99.90;;;;;;5068980;28;19999;-77
2023/01/07 12:38:38;;;;;;;;;;;19.00;99.90;;;;;;5066866;28;20073;-74
2023/01/07 12:41:09;;;;;;;;;;;19.00;99.90;;;;;;5067894;28;19920;-76
2023/01/07 12:43:44;;;;;;;;;;;19.00;99.90;;;;;;5072041;28;20554;-77
2023/01/07 12:46:12;;;;;;;;;;;19.00;99.90;;;;;;5069268;28;19931;-74
2023/01/07 12:49:05;;;;;;;;;;;19.00;99.90;;;;;;5071029;28;19924;-74
2023/01/07 12:51:48;;;;;;;;;;;19.00;99.90;;;;;;5071149;28;19981;-72
2023/01/07 12:54:17;;;;;;;;;;;19.00;99.90;;;;;;5068924;28;20367;-73
2023/01/07 12:56:54;;;;;;;;;;;19.00;99.90;;;;;;5067527;28;20393;-74
2023/01/07 12:59:27;;;;;;;;;;;19.00;99.90;;;;;;5070647;28;19927;-74
2023/01/07 13:02:11;;;;;;;;;;;19.00;99.90;;;;;;5069563;28;19920;-76
2023/01/07 13:04:56;;;;;;;;;;;19.00;99.90;;;;;;5069408;28;19920;-75
2023/01/07 13:07:39;;;;;;;;;;;19.00;99.90;;;;;;5070160;28;19966;-74
2023/01/07 13:10:12;;;;;;;;;;;19.00;99.90;;;;;;5070711;28;19935;-75
2023/01/07 13:12:43;;;;;;;;;;;19.00;99.90;;;;;;5072314;28;19909;-75
2023/01/07 13:15:32;;;;;;;;;;;19.00;99.90;;;;;;5061213;28;19956;-75
2023/01/07 13:18:19;;;;;;;;;;;19.00;99.90;;;;;;5054532;28;19916;-73
2023/01/07 13:20:46;;;;;;;;;;;19.00;99.90;;;;;;5071708;28;19927;-73
2023/01/07 13:23:23;;;;;;;;;;;19.00;99.90;;;;;;5067439;28;19926;-74
2023/01/07 13:25:50;;;;;;;;;;;19.00;99.90;;;;;;5066506;28;19959;-75
2023/01/07 13:28:35;;;;;;;;;;;19.00;99.90;;;;;;5058189;28;20286;-73
2023/01/07 13:31:19;;;;;;;;;;;18.90;99.90;;;;;;5071197;28;19913;-76
2023/01/07 13:34:04;;;;;;;;;;;18.90;99.90;;;;;;5058075;28;20277;-71
2023/01/07 13:36:37;;;;;;;;;;;18.90;99.90;;;;;;5070332;28;19923;-75
2023/01/07 13:39:23;;;;;;;;;;;18.90;99.90;;;;;;5076073;28;19920;-73
2023/01/07 13:41:52;;;;;;;;;;;18.90;99.90;;;;;;5066921;28;20011;-73
2023/01/07 13:44:25;;;;;;;;;;;18.90;99.90;;;;;;5069096;28;19928;-71
2023/01/07 13:46:52;;;;;;;;;;;18.90;99.90;;;;;;5067191;28;20011;-73
2023/01/07 13:49:28;;;;;;;;;;;18.90;99.90;;;;;;5060364;28;19979;-75
2023/01/07 13:51:59;;;;;;;;;;;18.90;99.90;;;;;;5055574;28;19912;-73
2023/01/07 13:54:44;;;;;;;;;;;18.90;99.90;;;;;;5067386;28;19923;-71
2023/01/07 13:57:26;;;;;;;;;;;18.80;99.90;;;;;;5070569;28;19969;-74
2023/01/07 13:59:54;;;;;;;;;;;18.70;99.90;;;;;;5064263;28;19960;-76
2023/01/07 14:02:22;;;;;;;;;;;18.60;99.90;;;;;;5070416;28;19923;-77
2023/01/07 14:05:07;;;;;;;;;;;18.50;99.90;;;;;;5065306;28;19950;-73
2023/01/07 14:07:47;;;;;;;;;;;18.40;99.90;;;;;;5052141;28;19913;-74
2023/01/07 14:10:29;;;;;;;;;;;18.40;99.90;;;;;;5058644;28;19996;-73
2023/01/07 14:13:18;;;;;;;;;;;18.40;99.90;;;;;;5064129;28;19912;-72
2023/01/07 14:16:05;;;;;;;;;;;18.30;99.90;;;;;;5069256;28;19913;-70
2023/01/07 14:18:37;;;;;;;;;;;18.30;99.90;;;;;;5059116;28;20632;-70
2023/01/07 14:21:16;;;;;;;;;;;18.30;99.90;;;;;;5063375;28;19920;-72
2023/01/07 14:23:45;;;;;;;;;;;18.20;99.90;;;;;;5070854;28;19932;-72
2023/01/07 14:26:25;;;;;;;;;;;18.20;99.90;;;;;;5067272;28;20299;-75
2023/01/07 14:28:52;;;;;;;;;;;18.20;99.90;;;;;;5068930;28;20011;-75
2023/01/07 14:31:23;;;;;;;;;;;18.20;99.90;;;;;;5070119;28;19920;-75
2023/01/07 14:33:57;;;;;;;;;;;18.20;99.90;;;;;;5066213;28;19917;-74
2023/01/07 14:36:24;;;;;;;;;;;18.20;99.90;;;;;;5063705;28;19919;-72